Главная страница
METAR-TAF:

METAR-TAF

Аэропорты :

Катовице-Пыжовице

Катовице, Польша

широта: 50-28-27N, долгота: 019-04-48E, высота над уровнем моря: 284 м

Текущие метеонаблюдения

Эта сводка был подготовлена 18 минут назад, в 23:30 UTC
Ветер 2 Узел от северо-восточный
Температура 16°C
Влажность 88%
Давление 1018 hPa
Видимость 10 км и более
Нет облачности ниже 1500 м, и нет кучево-дождевой облачности

METAR: EPKT 192330Z 05002KT CAVOK 16/14 Q1018

Время: 01:48 (23:48 UTC)

Прогноз

Эта сводка был подготовлена 18 минут назад, в 23:30 UTC
Прогноз действительный с 20-го 00 UTC до 20-го 24 UTC
Ветер 2 Узел переменных направлений
Видимость 10 км и более
Нет облачности ниже 1500 м, и нет кучево-дождевой облачности
изменения
С 20-го 08 UTC до 20-го 11 UTC
Ветер 10 Узел от западно-северо-западный
временами
С 20-го 12 UTC до 20-го 18 UTC
Рассеянная облачность на высоте 3000 фута, Кучево-дождевые.

TAF: EPKT 192330Z 2000/2024 VRB02KT CAVOK BECMG 2008/2011 30010KT TEMPO 2012/2018 BKN030CB

Метеонаблюдения и прогнозы для более 4000 аэропортов (сводки METAR и TAF).

Имеющиеся станции представлены на карте желтыми и красными точками.

Чтобы увидеть название станции, наведите на нее мышь.

Затем щелкните, чтобы увидеть метеонаблюдения и метеопрогнозы.

Управление картой: чтобы увеличить масштаб, щелкните зеленые кнопки с черным крестиком; чтобы уменьшить масштаб, щелкните зеленую кнопку с тире; для просмотра соседних карт щелкайте зеленые стрелки.


METAR-TAF: